sensor_id;sensor_type;location;lat;lon;timestamp;P1;durP1;ratioP1;P2;durP2;ratioP2
40116;SDS011;25829;50.228;18.936;2023-11-19T00:00:49;27.70;;;15.43;;
40116;SDS011;25829;50.228;18.936;2023-11-19T00:03:51;24.17;;;16.53;;
40116;SDS011;25829;50.228;18.936;2023-11-19T00:06:52;25.87;;;15.27;;
40116;SDS011;25829;50.228;18.936;2023-11-19T00:09:53;27.87;;;16.83;;
40116;SDS011;25829;50.228;18.936;2023-11-19T00:12:55;26.03;;;17.03;;
40116;SDS011;25829;50.228;18.936;2023-11-19T00:15:57;27.10;;;17.30;;
40116;SDS011;25829;50.228;18.936;2023-11-19T00:18:58;29.13;;;17.30;;
40116;SDS011;25829;50.228;18.936;2023-11-19T00:21:59;28.97;;;18.57;;
40116;SDS011;25829;50.228;18.936;2023-11-19T00:25:04;31.87;;;20.77;;
40116;SDS011;25829;50.228;18.936;2023-11-19T00:28:06;32.40;;;20.03;;
40116;SDS011;25829;50.228;18.936;2023-11-19T00:31:06;37.13;;;22.23;;
40116;SDS011;25829;50.228;18.936;2023-11-19T00:34:07;36.60;;;24.57;;
40116;SDS011;25829;50.228;18.936;2023-11-19T00:37:08;37.63;;;24.07;;
40116;SDS011;25829;50.228;18.936;2023-11-19T00:40:09;40.30;;;24.93;;
40116;SDS011;25829;50.228;18.936;2023-11-19T00:43:10;40.80;;;23.80;;
40116;SDS011;25829;50.228;18.936;2023-11-19T00:46:11;42.80;;;23.93;;
40116;SDS011;25829;50.228;18.936;2023-11-19T00:49:13;35.53;;;21.23;;
40116;SDS011;25829;50.228;18.936;2023-11-19T00:52:16;36.50;;;21.50;;
40116;SDS011;25829;50.228;18.936;2023-11-19T00:55:17;33.67;;;21.30;;
40116;SDS011;25829;50.228;18.936;2023-11-19T00:58:18;43.30;;;23.13;;
40116;SDS011;25829;50.228;18.936;2023-11-19T01:01:18;49.47;;;27.80;;
40116;SDS011;25829;50.228;18.936;2023-11-19T01:04:19;46.53;;;25.83;;
40116;SDS011;25829;50.228;18.936;2023-11-19T01:07:23;43.80;;;24.53;;
40116;SDS011;25829;50.228;18.936;2023-11-19T01:10:25;43.80;;;25.00;;
40116;SDS011;25829;50.228;18.936;2023-11-19T01:13:26;35.70;;;20.10;;
40116;SDS011;25829;50.228;18.936;2023-11-19T01:16:27;34.20;;;21.53;;
40116;SDS011;25829;50.228;18.936;2023-11-19T01:19:31;32.83;;;21.20;;
40116;SDS011;25829;50.228;18.936;2023-11-19T01:22:35;34.70;;;19.97;;
40116;SDS011;25829;50.228;18.936;2023-11-19T01:25:36;33.77;;;19.93;;
40116;SDS011;25829;50.228;18.936;2023-11-19T01:28:41;43.37;;;23.80;;
40116;SDS011;25829;50.228;18.936;2023-11-19T01:31:45;39.57;;;22.57;;
40116;SDS011;25829;50.228;18.936;2023-11-19T01:34:54;24.43;;;15.50;;
40116;SDS011;25829;50.228;18.936;2023-11-19T01:37:55;28.07;;;15.80;;
40116;SDS011;25829;50.228;18.936;2023-11-19T01:40:59;35.03;;;21.80;;
40116;SDS011;25829;50.228;18.936;2023-11-19T01:44:00;45.37;;;28.10;;
40116;SDS011;25829;50.228;18.936;2023-11-19T01:47:01;53.47;;;33.10;;
40116;SDS011;25829;50.228;18.936;2023-11-19T01:50:03;53.20;;;31.40;;
40116;SDS011;25829;50.228;18.936;2023-11-19T01:53:06;52.77;;;32.23;;
40116;SDS011;25829;50.228;18.936;2023-11-19T01:56:07;39.43;;;24.90;;
40116;SDS011;25829;50.228;18.936;2023-11-19T01:59:10;37.00;;;22.53;;
40116;SDS011;25829;50.228;18.936;2023-11-19T02:02:14;36.00;;;21.77;;
40116;SDS011;25829;50.228;18.936;2023-11-19T02:05:14;33.97;;;20.40;;
40116;SDS011;25829;50.228;18.936;2023-11-19T02:08:16;35.27;;;21.13;;
40116;SDS011;25829;50.228;18.936;2023-11-19T02:11:18;43.47;;;26.60;;
40116;SDS011;25829;50.228;18.936;2023-11-19T02:17:45;32.27;;;17.67;;
40116;SDS011;25829;50.228;18.936;2023-11-19T02:20:46;35.00;;;17.30;;
40116;SDS011;25829;50.228;18.936;2023-11-19T02:23:47;28.17;;;15.80;;
40116;SDS011;25829;50.228;18.936;2023-11-19T02:26:52;26.30;;;15.00;;
40116;SDS011;25829;50.228;18.936;2023-11-19T02:30:29;31.33;;;17.10;;
40116;SDS011;25829;50.228;18.936;2023-11-19T02:33:33;28.77;;;16.63;;
40116;SDS011;25829;50.228;18.936;2023-11-19T02:36:34;26.80;;;16.00;;
40116;SDS011;25829;50.228;18.936;2023-11-19T02:39:35;25.97;;;16.73;;
40116;SDS011;25829;50.228;18.936;2023-11-19T02:42:43;27.27;;;15.30;;
40116;SDS011;25829;50.228;18.936;2023-11-19T02:45:44;30.53;;;17.73;;
40116;SDS011;25829;50.228;18.936;2023-11-19T02:48:45;32.23;;;18.17;;
40116;SDS011;25829;50.228;18.936;2023-11-19T02:51:46;32.43;;;17.93;;
40116;SDS011;25829;50.228;18.936;2023-11-19T02:54:47;32.63;;;17.60;;
40116;SDS011;25829;50.228;18.936;2023-11-19T02:57:48;30.13;;;17.37;;
40116;SDS011;25829;50.228;18.936;2023-11-19T03:00:50;29.13;;;18.00;;
40116;SDS011;25829;50.228;18.936;2023-11-19T03:04:09;28.63;;;18.17;;
40116;SDS011;25829;50.228;18.936;2023-11-19T03:07:12;28.77;;;17.80;;
40116;SDS011;25829;50.228;18.936;2023-11-19T03:10:13;33.27;;;18.60;;
40116;SDS011;25829;50.228;18.936;2023-11-19T03:13:14;35.37;;;19.47;;
40116;SDS011;25829;50.228;18.936;2023-11-19T03:16:15;32.73;;;19.70;;
40116;SDS011;25829;50.228;18.936;2023-11-19T03:19:17;34.80;;;19.93;;
40116;SDS011;25829;50.228;18.936;2023-11-19T03:22:18;38.33;;;22.57;;
40116;SDS011;25829;50.228;18.936;2023-11-19T03:25:18;50.17;;;25.60;;
40116;SDS011;25829;50.228;18.936;2023-11-19T03:28:19;49.70;;;26.37;;
40116;SDS011;25829;50.228;18.936;2023-11-19T03:31:20;60.23;;;31.43;;
40116;SDS011;25829;50.228;18.936;2023-11-19T03:34:21;84.23;;;35.97;;
40116;SDS011;25829;50.228;18.936;2023-11-19T03:37:22;115.60;;;46.97;;
40116;SDS011;25829;50.228;18.936;2023-11-19T03:40:29;144.10;;;51.87;;
40116;SDS011;25829;50.228;18.936;2023-11-19T03:43:30;109.27;;;44.77;;
40116;SDS011;25829;50.228;18.936;2023-11-19T03:46:38;118.83;;;44.70;;
40116;SDS011;25829;50.228;18.936;2023-11-19T03:49:38;131.87;;;54.60;;
40116;SDS011;25829;50.228;18.936;2023-11-19T03:52:39;109.37;;;42.73;;
40116;SDS011;25829;50.228;18.936;2023-11-19T03:55:40;129.47;;;56.10;;
40116;SDS011;25829;50.228;18.936;2023-11-19T03:58:40;154.03;;;71.63;;
40116;SDS011;25829;50.228;18.936;2023-11-19T04:01:42;151.03;;;71.60;;
40116;SDS011;25829;50.228;18.936;2023-11-19T04:04:43;133.57;;;64.50;;
40116;SDS011;25829;50.228;18.936;2023-11-19T04:07:43;119.50;;;54.70;;
40116;SDS011;25829;50.228;18.936;2023-11-19T04:10:44;78.13;;;38.80;;
40116;SDS011;25829;50.228;18.936;2023-11-19T04:13:45;55.57;;;28.23;;
40116;SDS011;25829;50.228;18.936;2023-11-19T04:16:46;74.53;;;34.50;;
40116;SDS011;25829;50.228;18.936;2023-11-19T04:19:50;71.10;;;35.37;;
40116;SDS011;25829;50.228;18.936;2023-11-19T04:22:50;72.20;;;34.57;;
40116;SDS011;25829;50.228;18.936;2023-11-19T04:25:51;72.23;;;35.93;;
40116;SDS011;25829;50.228;18.936;2023-11-19T04:28:52;44.83;;;24.10;;
40116;SDS011;25829;50.228;18.936;2023-11-19T04:31:54;34.03;;;21.47;;
40116;SDS011;25829;50.228;18.936;2023-11-19T04:34:55;31.93;;;19.67;;
40116;SDS011;25829;50.228;18.936;2023-11-19T04:37:56;34.00;;;19.97;;
40116;SDS011;25829;50.228;18.936;2023-11-19T04:40:57;30.87;;;18.27;;
40116;SDS011;25829;50.228;18.936;2023-11-19T04:43:58;27.70;;;17.77;;
40116;SDS011;25829;50.228;18.936;2023-11-19T04:46:59;30.33;;;18.23;;
40116;SDS011;25829;50.228;18.936;2023-11-19T04:49:59;32.23;;;18.30;;
40116;SDS011;25829;50.228;18.936;2023-11-19T04:53:00;28.73;;;18.93;;
40116;SDS011;25829;50.228;18.936;2023-11-19T04:56:07;31.20;;;18.97;;
40116;SDS011;25829;50.228;18.936;2023-11-19T04:59:09;39.80;;;22.80;;
40116;SDS011;25829;50.228;18.936;2023-11-19T05:02:09;39.90;;;21.90;;
40116;SDS011;25829;50.228;18.936;2023-11-19T05:05:10;48.87;;;25.90;;
40116;SDS011;25829;50.228;18.936;2023-11-19T05:08:11;44.00;;;25.40;;
40116;SDS011;25829;50.228;18.936;2023-11-19T05:11:12;41.57;;;23.83;;
40116;SDS011;25829;50.228;18.936;2023-11-19T05:14:18;43.63;;;25.33;;
40116;SDS011;25829;50.228;18.936;2023-11-19T05:17:22;40.40;;;23.13;;
40116;SDS011;25829;50.228;18.936;2023-11-19T05:20:22;38.73;;;22.00;;
40116;SDS011;25829;50.228;18.936;2023-11-19T05:23:23;28.03;;;18.00;;
40116;SDS011;25829;50.228;18.936;2023-11-19T05:26:24;33.30;;;19.20;;
40116;SDS011;25829;50.228;18.936;2023-11-19T05:29:25;30.87;;;18.77;;
40116;SDS011;25829;50.228;18.936;2023-11-19T05:32:25;28.93;;;18.37;;
40116;SDS011;25829;50.228;18.936;2023-11-19T05:35:26;27.60;;;16.87;;
40116;SDS011;25829;50.228;18.936;2023-11-19T05:38:27;32.17;;;18.43;;
40116;SDS011;25829;50.228;18.936;2023-11-19T05:41:29;31.63;;;19.00;;
40116;SDS011;25829;50.228;18.936;2023-11-19T05:44:29;31.77;;;18.67;;
40116;SDS011;25829;50.228;18.936;2023-11-19T05:47:30;27.63;;;17.00;;
40116;SDS011;25829;50.228;18.936;2023-11-19T05:50:31;29.63;;;19.53;;
40116;SDS011;25829;50.228;18.936;2023-11-19T05:53:35;27.37;;;18.03;;
40116;SDS011;25829;50.228;18.936;2023-11-19T05:56:35;30.23;;;18.67;;
40116;SDS011;25829;50.228;18.936;2023-11-19T05:59:37;31.60;;;18.03;;
40116;SDS011;25829;50.228;18.936;2023-11-19T06:02:37;32.67;;;19.27;;
40116;SDS011;25829;50.228;18.936;2023-11-19T06:05:38;32.87;;;18.93;;
40116;SDS011;25829;50.228;18.936;2023-11-19T06:08:39;28.97;;;18.37;;
40116;SDS011;25829;50.228;18.936;2023-11-19T06:11:40;23.57;;;14.47;;
40116;SDS011;25829;50.228;18.936;2023-11-19T06:14:40;27.83;;;16.70;;
40116;SDS011;25829;50.228;18.936;2023-11-19T06:17:41;29.73;;;17.33;;
40116;SDS011;25829;50.228;18.936;2023-11-19T06:20:46;29.83;;;17.27;;
40116;SDS011;25829;50.228;18.936;2023-11-19T06:23:46;23.87;;;15.83;;
40116;SDS011;25829;50.228;18.936;2023-11-19T06:26:47;28.33;;;16.90;;
40116;SDS011;25829;50.228;18.936;2023-11-19T06:29:48;26.20;;;15.73;;
40116;SDS011;25829;50.228;18.936;2023-11-19T06:32:55;20.97;;;13.83;;
40116;SDS011;25829;50.228;18.936;2023-11-19T06:35:55;24.80;;;14.20;;
40116;SDS011;25829;50.228;18.936;2023-11-19T06:38:56;22.30;;;14.23;;
40116;SDS011;25829;50.228;18.936;2023-11-19T06:41:57;21.53;;;13.30;;
40116;SDS011;25829;50.228;18.936;2023-11-19T06:44:58;25.63;;;13.63;;
40116;SDS011;25829;50.228;18.936;2023-11-19T06:48:02;26.33;;;14.10;;
40116;SDS011;25829;50.228;18.936;2023-11-19T06:51:05;23.73;;;13.67;;
40116;SDS011;25829;50.228;18.936;2023-11-19T07:03:30;28.33;;;15.73;;
40116;SDS011;25829;50.228;18.936;2023-11-19T07:06:31;24.73;;;16.10;;
40116;SDS011;25829;50.228;18.936;2023-11-19T07:09:45;27.00;;;16.77;;
40116;SDS011;25829;50.228;18.936;2023-11-19T07:16:20;32.73;;;16.80;;
40116;SDS011;25829;50.228;18.936;2023-11-19T07:26:43;26.97;;;16.60;;
40116;SDS011;25829;50.228;18.936;2023-11-19T07:29:45;24.10;;;15.23;;
40116;SDS011;25829;50.228;18.936;2023-11-19T07:32:46;21.80;;;13.23;;
40116;SDS011;25829;50.228;18.936;2023-11-19T07:35:47;27.03;;;15.60;;
40116;SDS011;25829;50.228;18.936;2023-11-19T07:39:10;26.77;;;15.37;;
40116;SDS011;25829;50.228;18.936;2023-11-19T07:43:31;27.23;;;15.57;;
40116;SDS011;25829;50.228;18.936;2023-11-19T07:48:05;24.87;;;16.00;;
40116;SDS011;25829;50.228;18.936;2023-11-19T07:52:56;28.30;;;16.30;;
40116;SDS011;25829;50.228;18.936;2023-11-19T07:55:57;29.80;;;15.97;;
40116;SDS011;25829;50.228;18.936;2023-11-19T07:59:00;27.20;;;16.33;;
40116;SDS011;25829;50.228;18.936;2023-11-19T08:02:01;28.03;;;17.77;;
40116;SDS011;25829;50.228;18.936;2023-11-19T08:05:02;28.80;;;16.77;;
40116;SDS011;25829;50.228;18.936;2023-11-19T08:08:03;25.13;;;15.77;;
40116;SDS011;25829;50.228;18.936;2023-11-19T08:11:04;25.57;;;16.13;;
40116;SDS011;25829;50.228;18.936;2023-11-19T08:14:05;27.37;;;16.37;;
40116;SDS011;25829;50.228;18.936;2023-11-19T08:17:06;25.50;;;13.93;;
40116;SDS011;25829;50.228;18.936;2023-11-19T08:20:07;20.30;;;13.97;;
40116;SDS011;25829;50.228;18.936;2023-11-19T08:23:13;23.43;;;14.30;;
40116;SDS011;25829;50.228;18.936;2023-11-19T08:26:15;23.27;;;14.27;;
40116;SDS011;25829;50.228;18.936;2023-11-19T08:29:19;22.07;;;13.10;;
40116;SDS011;25829;50.228;18.936;2023-11-19T08:32:26;22.20;;;14.23;;
40116;SDS011;25829;50.228;18.936;2023-11-19T08:35:38;20.77;;;13.20;;
40116;SDS011;25829;50.228;18.936;2023-11-19T08:38:39;22.97;;;13.83;;
40116;SDS011;25829;50.228;18.936;2023-11-19T08:41:39;25.83;;;15.03;;
40116;SDS011;25829;50.228;18.936;2023-11-19T08:44:42;20.47;;;12.63;;
40116;SDS011;25829;50.228;18.936;2023-11-19T08:47:44;24.40;;;14.77;;
40116;SDS011;25829;50.228;18.936;2023-11-19T08:50:45;37.77;;;20.33;;
40116;SDS011;25829;50.228;18.936;2023-11-19T08:53:49;56.00;;;24.63;;
40116;SDS011;25829;50.228;18.936;2023-11-19T08:56:50;28.40;;;16.37;;
40116;SDS011;25829;50.228;18.936;2023-11-19T08:59:50;30.33;;;16.70;;
40116;SDS011;25829;50.228;18.936;2023-11-19T09:02:51;48.80;;;27.00;;
40116;SDS011;25829;50.228;18.936;2023-11-19T09:05:52;30.03;;;18.77;;
40116;SDS011;25829;50.228;18.936;2023-11-19T09:08:54;22.93;;;14.53;;
40116;SDS011;25829;50.228;18.936;2023-11-19T09:12:00;27.17;;;14.83;;
40116;SDS011;25829;50.228;18.936;2023-11-19T09:15:55;24.60;;;15.00;;
40116;SDS011;25829;50.228;18.936;2023-11-19T09:18:59;24.20;;;16.30;;
40116;SDS011;25829;50.228;18.936;2023-11-19T09:22:00;30.90;;;17.70;;
40116;SDS011;25829;50.228;18.936;2023-11-19T09:25:01;23.57;;;15.07;;
40116;SDS011;25829;50.228;18.936;2023-11-19T09:28:02;24.77;;;15.33;;
40116;SDS011;25829;50.228;18.936;2023-11-19T09:31:03;26.20;;;17.07;;
40116;SDS011;25829;50.228;18.936;2023-11-19T09:34:13;27.07;;;16.63;;
40116;SDS011;25829;50.228;18.936;2023-11-19T09:37:14;28.87;;;15.37;;
40116;SDS011;25829;50.228;18.936;2023-11-19T09:40:14;26.20;;;15.47;;
40116;SDS011;25829;50.228;18.936;2023-11-19T09:43:18;25.53;;;16.50;;
40116;SDS011;25829;50.228;18.936;2023-11-19T09:46:19;29.63;;;17.27;;
40116;SDS011;25829;50.228;18.936;2023-11-19T09:49:24;31.13;;;17.70;;
40116;SDS011;25829;50.228;18.936;2023-11-19T09:52:27;24.80;;;16.80;;
40116;SDS011;25829;50.228;18.936;2023-11-19T09:55:27;26.07;;;17.07;;
40116;SDS011;25829;50.228;18.936;2023-11-19T09:58:29;30.80;;;18.03;;
40116;SDS011;25829;50.228;18.936;2023-11-19T10:01:31;24.13;;;14.63;;
40116;SDS011;25829;50.228;18.936;2023-11-19T10:04:33;30.37;;;17.73;;
40116;SDS011;25829;50.228;18.936;2023-11-19T10:07:37;37.90;;;18.57;;
40116;SDS011;25829;50.228;18.936;2023-11-19T10:10:38;29.93;;;17.73;;
40116;SDS011;25829;50.228;18.936;2023-11-19T10:13:39;25.30;;;14.90;;
40116;SDS011;25829;50.228;18.936;2023-11-19T10:16:40;26.53;;;15.33;;
40116;SDS011;25829;50.228;18.936;2023-11-19T10:19:41;27.60;;;16.33;;
40116;SDS011;25829;50.228;18.936;2023-11-19T10:22:42;21.10;;;13.30;;
40116;SDS011;25829;50.228;18.936;2023-11-19T10:25:42;24.63;;;16.30;;
40116;SDS011;25829;50.228;18.936;2023-11-19T10:28:47;22.03;;;15.13;;
40116;SDS011;25829;50.228;18.936;2023-11-19T10:31:55;30.23;;;17.10;;
40116;SDS011;25829;50.228;18.936;2023-11-19T10:35:06;23.23;;;15.60;;
40116;SDS011;25829;50.228;18.936;2023-11-19T10:45:22;24.20;;;14.17;;
40116;SDS011;25829;50.228;18.936;2023-11-19T10:48:26;23.67;;;14.80;;
40116;SDS011;25829;50.228;18.936;2023-11-19T10:51:27;24.13;;;14.20;;
40116;SDS011;25829;50.228;18.936;2023-11-19T10:54:29;22.83;;;15.90;;
40116;SDS011;25829;50.228;18.936;2023-11-19T10:57:32;25.87;;;15.10;;
40116;SDS011;25829;50.228;18.936;2023-11-19T11:00:38;19.73;;;14.17;;
40116;SDS011;25829;50.228;18.936;2023-11-19T11:03:43;25.03;;;12.80;;
40116;SDS011;25829;50.228;18.936;2023-11-19T11:06:46;20.33;;;12.17;;
40116;SDS011;25829;50.228;18.936;2023-11-19T11:09:48;18.63;;;11.53;;
40116;SDS011;25829;50.228;18.936;2023-11-19T11:12:49;20.27;;;13.17;;
40116;SDS011;25829;50.228;18.936;2023-11-19T11:15:56;16.10;;;10.87;;
40116;SDS011;25829;50.228;18.936;2023-11-19T11:19:00;20.10;;;12.37;;
40116;SDS011;25829;50.228;18.936;2023-11-19T11:22:02;15.53;;;10.70;;
40116;SDS011;25829;50.228;18.936;2023-11-19T11:29:00;25.43;;;13.70;;
40116;SDS011;25829;50.228;18.936;2023-11-19T11:35:44;30.80;;;18.13;;
40116;SDS011;25829;50.228;18.936;2023-11-19T11:53:25;20.87;;;13.70;;
40116;SDS011;25829;50.228;18.936;2023-11-19T11:56:32;21.97;;;13.07;;
40116;SDS011;25829;50.228;18.936;2023-11-19T12:02:43;27.37;;;14.13;;
40116;SDS011;25829;50.228;18.936;2023-11-19T12:05:45;24.13;;;14.13;;
40116;SDS011;25829;50.228;18.936;2023-11-19T12:08:46;22.73;;;13.60;;
40116;SDS011;25829;50.228;18.936;2023-11-19T12:11:47;19.87;;;12.47;;
40116;SDS011;25829;50.228;18.936;2023-11-19T12:15:07;28.47;;;16.47;;
40116;SDS011;25829;50.228;18.936;2023-11-19T12:18:11;45.13;;;22.17;;
40116;SDS011;25829;50.228;18.936;2023-11-19T12:21:29;23.40;;;13.77;;
40116;SDS011;25829;50.228;18.936;2023-11-19T12:24:31;32.53;;;17.43;;
40116;SDS011;25829;50.228;18.936;2023-11-19T12:27:33;21.77;;;11.50;;
40116;SDS011;25829;50.228;18.936;2023-11-19T12:30:36;16.30;;;10.50;;
40116;SDS011;25829;50.228;18.936;2023-11-19T12:33:37;25.00;;;14.20;;
40116;SDS011;25829;50.228;18.936;2023-11-19T12:36:38;19.93;;;12.73;;
40116;SDS011;25829;50.228;18.936;2023-11-19T12:39:39;15.63;;;11.10;;
40116;SDS011;25829;50.228;18.936;2023-11-19T12:42:40;17.30;;;11.17;;
40116;SDS011;25829;50.228;18.936;2023-11-19T12:45:41;15.50;;;10.00;;
40116;SDS011;25829;50.228;18.936;2023-11-19T12:48:42;14.63;;;9.53;;
40116;SDS011;25829;50.228;18.936;2023-11-19T12:51:43;16.50;;;10.77;;
40116;SDS011;25829;50.228;18.936;2023-11-19T12:54:43;14.87;;;9.70;;
40116;SDS011;25829;50.228;18.936;2023-11-19T12:57:44;20.83;;;11.27;;
40116;SDS011;25829;50.228;18.936;2023-11-19T13:00:45;12.90;;;9.07;;
40116;SDS011;25829;50.228;18.936;2023-11-19T13:03:46;16.73;;;10.67;;
40116;SDS011;25829;50.228;18.936;2023-11-19T13:06:49;13.13;;;9.03;;
40116;SDS011;25829;50.228;18.936;2023-11-19T13:09:50;11.63;;;8.13;;
40116;SDS011;25829;50.228;18.936;2023-11-19T13:13:06;11.90;;;8.07;;
40116;SDS011;25829;50.228;18.936;2023-11-19T13:16:08;12.67;;;8.13;;
40116;SDS011;25829;50.228;18.936;2023-11-19T13:19:09;10.60;;;7.90;;
40116;SDS011;25829;50.228;18.936;2023-11-19T13:22:10;11.03;;;8.70;;
40116;SDS011;25829;50.228;18.936;2023-11-19T13:25:15;11.13;;;7.37;;
40116;SDS011;25829;50.228;18.936;2023-11-19T13:28:15;11.47;;;7.83;;
40116;SDS011;25829;50.228;18.936;2023-11-19T13:31:16;12.07;;;7.77;;
40116;SDS011;25829;50.228;18.936;2023-11-19T13:34:17;12.27;;;7.67;;
40116;SDS011;25829;50.228;18.936;2023-11-19T13:37:18;13.77;;;9.13;;
40116;SDS011;25829;50.228;18.936;2023-11-19T13:40:18;11.93;;;8.07;;
40116;SDS011;25829;50.228;18.936;2023-11-19T13:43:19;12.90;;;9.23;;
40116;SDS011;25829;50.228;18.936;2023-11-19T13:46:20;10.73;;;8.53;;
40116;SDS011;25829;50.228;18.936;2023-11-19T13:49:25;13.03;;;8.70;;
40116;SDS011;25829;50.228;18.936;2023-11-19T13:52:25;11.70;;;7.47;;
40116;SDS011;25829;50.228;18.936;2023-11-19T14:12:24;13.87;;;7.27;;
40116;SDS011;25829;50.228;18.936;2023-11-19T14:15:24;11.97;;;6.77;;
40116;SDS011;25829;50.228;18.936;2023-11-19T14:18:25;14.47;;;7.27;;
40116;SDS011;25829;50.228;18.936;2023-11-19T14:21:26;8.27;;;6.43;;
40116;SDS011;25829;50.228;18.936;2023-11-19T14:24:27;10.73;;;5.87;;
40116;SDS011;25829;50.228;18.936;2023-11-19T14:27:27;6.17;;;4.47;;
40116;SDS011;25829;50.228;18.936;2023-11-19T14:30:31;6.83;;;4.43;;
40116;SDS011;25829;50.228;18.936;2023-11-19T14:33:32;6.77;;;4.80;;
40116;SDS011;25829;50.228;18.936;2023-11-19T14:36:35;5.10;;;4.13;;
40116;SDS011;25829;50.228;18.936;2023-11-19T14:39:36;7.43;;;4.00;;
40116;SDS011;25829;50.228;18.936;2023-11-19T14:42:37;5.63;;;3.83;;
40116;SDS011;25829;50.228;18.936;2023-11-19T14:45:39;7.20;;;4.57;;
40116;SDS011;25829;50.228;18.936;2023-11-19T14:48:40;4.97;;;3.97;;
40116;SDS011;25829;50.228;18.936;2023-11-19T14:51:41;8.30;;;5.87;;
40116;SDS011;25829;50.228;18.936;2023-11-19T14:54:43;5.73;;;4.43;;
40116;SDS011;25829;50.228;18.936;2023-11-19T14:57:44;5.43;;;4.50;;
40116;SDS011;25829;50.228;18.936;2023-11-19T15:00:44;7.03;;;4.50;;
40116;SDS011;25829;50.228;18.936;2023-11-19T15:03:45;5.90;;;4.23;;
40116;SDS011;25829;50.228;18.936;2023-11-19T15:06:46;5.83;;;4.33;;
40116;SDS011;25829;50.228;18.936;2023-11-19T15:09:47;4.87;;;3.57;;
40116;SDS011;25829;50.228;18.936;2023-11-19T15:12:47;4.63;;;3.67;;
40116;SDS011;25829;50.228;18.936;2023-11-19T15:15:48;6.17;;;4.70;;
40116;SDS011;25829;50.228;18.936;2023-11-19T15:18:49;6.60;;;4.57;;
40116;SDS011;25829;50.228;18.936;2023-11-19T15:21:59;6.43;;;4.93;;
40116;SDS011;25829;50.228;18.936;2023-11-19T15:25:04;6.60;;;4.50;;
40116;SDS011;25829;50.228;18.936;2023-11-19T15:28:10;6.57;;;4.97;;
40116;SDS011;25829;50.228;18.936;2023-11-19T15:31:11;7.37;;;4.70;;
40116;SDS011;25829;50.228;18.936;2023-11-19T15:34:11;4.60;;;3.60;;
40116;SDS011;25829;50.228;18.936;2023-11-19T15:37:12;6.47;;;4.20;;
40116;SDS011;25829;50.228;18.936;2023-11-19T15:40:14;5.60;;;3.97;;
40116;SDS011;25829;50.228;18.936;2023-11-19T15:43:16;6.37;;;4.17;;
40116;SDS011;25829;50.228;18.936;2023-11-19T15:46:16;7.50;;;5.40;;
40116;SDS011;25829;50.228;18.936;2023-11-19T15:49:55;8.17;;;4.63;;
40116;SDS011;25829;50.228;18.936;2023-11-19T15:52:55;5.47;;;4.03;;
40116;SDS011;25829;50.228;18.936;2023-11-19T15:55:56;6.50;;;4.53;;
40116;SDS011;25829;50.228;18.936;2023-11-19T15:58:58;6.00;;;4.50;;
40116;SDS011;25829;50.228;18.936;2023-11-19T16:02:00;7.77;;;4.60;;
40116;SDS011;25829;50.228;18.936;2023-11-19T16:05:04;6.37;;;4.30;;
40116;SDS011;25829;50.228;18.936;2023-11-19T16:08:11;7.93;;;4.93;;
40116;SDS011;25829;50.228;18.936;2023-11-19T16:11:22;7.67;;;4.67;;
40116;SDS011;25829;50.228;18.936;2023-11-19T16:14:24;8.50;;;5.80;;
40116;SDS011;25829;50.228;18.936;2023-11-19T16:18:44;5.37;;;4.33;;
40116;SDS011;25829;50.228;18.936;2023-11-19T16:22:39;6.57;;;4.30;;
40116;SDS011;25829;50.228;18.936;2023-11-19T16:26:25;6.83;;;4.57;;
40116;SDS011;25829;50.228;18.936;2023-11-19T16:30:52;5.57;;;4.33;;
40116;SDS011;25829;50.228;18.936;2023-11-19T16:34:20;8.27;;;5.33;;
40116;SDS011;25829;50.228;18.936;2023-11-19T16:38:07;6.63;;;4.50;;
40116;SDS011;25829;50.228;18.936;2023-11-19T16:42:23;5.03;;;4.40;;
40116;SDS011;25829;50.228;18.936;2023-11-19T16:45:27;5.60;;;4.60;;
40116;SDS011;25829;50.228;18.936;2023-11-19T16:49:44;6.07;;;4.77;;
40116;SDS011;25829;50.228;18.936;2023-11-19T16:53:17;5.70;;;4.07;;
40116;SDS011;25829;50.228;18.936;2023-11-19T16:56:32;8.70;;;5.07;;
40116;SDS011;25829;50.228;18.936;2023-11-19T17:00:01;5.53;;;4.27;;
40116;SDS011;25829;50.228;18.936;2023-11-19T17:03:54;10.97;;;6.70;;
40116;SDS011;25829;50.228;18.936;2023-11-19T17:07:56;10.67;;;6.60;;
40116;SDS011;25829;50.228;18.936;2023-11-19T17:12:04;7.80;;;5.73;;
40116;SDS011;25829;50.228;18.936;2023-11-19T17:16:21;8.13;;;5.93;;
40116;SDS011;25829;50.228;18.936;2023-11-19T17:20:42;7.77;;;5.03;;
40116;SDS011;25829;50.228;18.936;2023-11-19T17:24:51;9.97;;;4.83;;
40116;SDS011;25829;50.228;18.936;2023-11-19T17:28:54;8.17;;;4.13;;
40116;SDS011;25829;50.228;18.936;2023-11-19T17:32:12;7.77;;;5.20;;
40116;SDS011;25829;50.228;18.936;2023-11-19T17:36:07;7.07;;;5.00;;
40116;SDS011;25829;50.228;18.936;2023-11-19T17:39:33;9.07;;;5.40;;
40116;SDS011;25829;50.228;18.936;2023-11-19T17:43:11;10.50;;;4.60;;
40116;SDS011;25829;50.228;18.936;2023-11-19T17:47:27;10.30;;;5.37;;
40116;SDS011;25829;50.228;18.936;2023-11-19T17:51:08;12.17;;;6.93;;
40116;SDS011;25829;50.228;18.936;2023-11-19T17:54:51;6.27;;;4.67;;
40116;SDS011;25829;50.228;18.936;2023-11-19T17:58:46;8.33;;;4.77;;
40116;SDS011;25829;50.228;18.936;2023-11-19T18:03:02;7.13;;;4.90;;
40116;SDS011;25829;50.228;18.936;2023-11-19T18:06:30;6.60;;;4.80;;
40116;SDS011;25829;50.228;18.936;2023-11-19T18:09:31;8.07;;;5.50;;
40116;SDS011;25829;50.228;18.936;2023-11-19T18:13:36;6.30;;;4.97;;
40116;SDS011;25829;50.228;18.936;2023-11-19T18:16:43;7.10;;;5.33;;
40116;SDS011;25829;50.228;18.936;2023-11-19T18:20:24;10.20;;;5.90;;
40116;SDS011;25829;50.228;18.936;2023-11-19T18:24:08;7.33;;;5.47;;
40116;SDS011;25829;50.228;18.936;2023-11-19T18:27:42;5.97;;;5.33;;
40116;SDS011;25829;50.228;18.936;2023-11-19T18:31:35;7.10;;;5.40;;
40116;SDS011;25829;50.228;18.936;2023-11-19T18:34:48;6.93;;;5.17;;
40116;SDS011;25829;50.228;18.936;2023-11-19T18:38:34;7.13;;;5.70;;
40116;SDS011;25829;50.228;18.936;2023-11-19T18:42:04;9.27;;;6.10;;
40116;SDS011;25829;50.228;18.936;2023-11-19T18:45:37;7.97;;;5.67;;
40116;SDS011;25829;50.228;18.936;2023-11-19T18:49:41;7.30;;;5.87;;
40116;SDS011;25829;50.228;18.936;2023-11-19T18:53:18;7.10;;;5.37;;
40116;SDS011;25829;50.228;18.936;2023-11-19T18:56:23;9.17;;;6.17;;
40116;SDS011;25829;50.228;18.936;2023-11-19T18:59:42;9.20;;;6.17;;
40116;SDS011;25829;50.228;18.936;2023-11-19T19:02:53;10.07;;;6.40;;
40116;SDS011;25829;50.228;18.936;2023-11-19T19:05:57;8.47;;;6.30;;
40116;SDS011;25829;50.228;18.936;2023-11-19T19:09:23;7.87;;;5.80;;
40116;SDS011;25829;50.228;18.936;2023-11-19T19:12:47;7.60;;;5.83;;
40116;SDS011;25829;50.228;18.936;2023-11-19T19:16:11;9.03;;;5.87;;
40116;SDS011;25829;50.228;18.936;2023-11-19T19:19:33;10.40;;;5.77;;
40116;SDS011;25829;50.228;18.936;2023-11-19T19:22:35;10.63;;;5.60;;
40116;SDS011;25829;50.228;18.936;2023-11-19T19:25:44;7.23;;;5.57;;
40116;SDS011;25829;50.228;18.936;2023-11-19T19:28:54;9.13;;;6.23;;
40116;SDS011;25829;50.228;18.936;2023-11-19T19:31:55;6.67;;;5.67;;